createdAt,value
2022-08-18T00:00:58.580Z,30
2022-08-18T00:01:58.713Z,27
2022-08-18T00:03:00.979Z,28
2022-08-18T00:04:03.027Z,28
2022-08-18T00:04:58.608Z,27
2022-08-18T00:05:58.617Z,27
2022-08-18T00:06:58.529Z,27
2022-08-18T00:07:58.556Z,27
2022-08-18T00:08:58.639Z,29
2022-08-18T00:09:58.554Z,28
2022-08-18T00:10:58.565Z,28
2022-08-18T00:11:58.642Z,28
2022-08-18T00:13:01.350Z,30
2022-08-18T00:13:58.515Z,29
2022-08-18T00:14:58.567Z,27
2022-08-18T00:15:58.571Z,29
2022-08-18T00:16:58.575Z,28
2022-08-18T00:17:58.601Z,28
2022-08-18T00:18:58.596Z,29
2022-08-18T00:19:58.609Z,29
2022-08-18T00:20:58.611Z,29
2022-08-18T00:21:58.616Z,28
2022-08-18T00:22:58.648Z,28
2022-08-18T00:23:58.684Z,30
2022-08-18T00:24:58.606Z,30
2022-08-18T00:25:58.656Z,28
2022-08-18T00:26:58.653Z,28
2022-08-18T00:27:58.598Z,28
2022-08-18T00:28:58.579Z,28
2022-08-18T00:29:58.567Z,29
2022-08-18T00:30:58.564Z,29
2022-08-18T00:31:58.597Z,29
2022-08-18T00:32:58.701Z,29
2022-08-18T00:33:58.579Z,28
2022-08-18T00:34:58.536Z,28
2022-08-18T00:35:58.624Z,27
2022-08-18T00:36:58.547Z,30
2022-08-18T00:37:58.623Z,28
2022-08-18T00:38:58.616Z,30
2022-08-18T00:39:58.722Z,29
2022-08-18T00:40:58.648Z,30
2022-08-18T00:41:58.575Z,30
2022-08-18T00:42:58.555Z,28
2022-08-18T00:43:58.645Z,30
2022-08-18T00:44:58.584Z,30
2022-08-18T00:45:58.586Z,30
2022-08-18T00:46:58.667Z,33
2022-08-18T00:47:59.007Z,29
2022-08-18T00:48:58.523Z,28
2022-08-18T00:49:58.543Z,29
2022-08-18T00:50:58.600Z,29
2022-08-18T00:51:58.625Z,27
2022-08-18T00:52:58.622Z,27
2022-08-18T00:53:58.610Z,29
2022-08-18T00:54:58.640Z,28
2022-08-18T00:55:58.645Z,28
2022-08-18T00:56:58.649Z,27
2022-08-18T00:57:58.671Z,27
2022-08-18T00:58:58.549Z,27
2022-08-18T00:59:58.553Z,27
2022-08-18T01:00:58.769Z,26
2022-08-18T01:01:58.608Z,26
2022-08-18T01:02:58.559Z,27
2022-08-18T01:03:58.577Z,27
2022-08-18T01:04:58.580Z,29
2022-08-18T01:05:58.626Z,26
2022-08-18T01:06:58.599Z,25
2022-08-18T01:07:58.625Z,24
2022-08-18T01:08:58.633Z,28
2022-08-18T01:09:58.627Z,26
2022-08-18T01:10:58.652Z,23
2022-08-18T01:11:58.636Z,21
2022-08-18T01:12:58.651Z,25
2022-08-18T01:13:58.546Z,23
2022-08-18T01:14:58.651Z,23
2022-08-18T01:15:58.595Z,26
2022-08-18T01:16:58.561Z,25
2022-08-18T01:17:58.592Z,24
2022-08-18T01:18:58.572Z,23
2022-08-18T01:19:58.585Z,23
2022-08-18T01:20:58.584Z,24
2022-08-18T01:21:58.709Z,25
2022-08-18T01:22:58.607Z,26
2022-08-18T01:23:58.536Z,24
2022-08-18T01:24:58.547Z,27
2022-08-18T01:25:58.646Z,26
2022-08-18T01:26:58.544Z,26
2022-08-18T01:28:00.723Z,28
2022-08-18T01:28:58.599Z,27
2022-08-18T01:29:58.643Z,25
2022-08-18T01:30:58.650Z,27
2022-08-18T01:31:58.557Z,28
2022-08-18T01:32:58.575Z,26
2022-08-18T01:33:58.569Z,26
2022-08-18T01:34:58.574Z,27
2022-08-18T01:35:58.676Z,30
2022-08-18T01:36:58.697Z,27
2022-08-18T01:37:58.614Z,28
2022-08-18T01:38:58.572Z,25
2022-08-18T01:41:23.720Z,28
2022-08-18T01:41:23.964Z,27
2022-08-18T01:41:58.603Z,29
2022-08-18T01:42:58.622Z,30
2022-08-18T01:43:58.775Z,29
2022-08-18T01:44:58.639Z,29
2022-08-18T01:45:58.645Z,29
2022-08-18T01:46:58.652Z,30
2022-08-18T01:47:58.668Z,32
2022-08-18T01:48:58.656Z,31
2022-08-18T01:49:58.674Z,32
2022-08-18T01:50:58.673Z,33
2022-08-18T01:51:58.605Z,33
2022-08-18T01:52:58.587Z,32
2022-08-18T01:53:58.539Z,34
2022-08-18T01:54:58.603Z,32
2022-08-18T01:55:58.563Z,34
2022-08-18T01:56:58.714Z,32
2022-08-18T01:57:58.670Z,32
2022-08-18T01:58:58.623Z,32
2022-08-18T01:59:58.667Z,32
2022-08-18T02:00:58.635Z,32
2022-08-18T02:01:58.705Z,32
2022-08-18T02:03:02.512Z,34
2022-08-18T02:04:23.352Z,33
2022-08-18T02:04:58.655Z,33
2022-08-18T02:05:58.566Z,33
2022-08-18T02:06:58.542Z,33
2022-08-18T02:07:58.627Z,31
2022-08-18T02:08:58.575Z,30
2022-08-18T02:09:59.268Z,30
2022-08-18T02:10:58.621Z,24
2022-08-18T02:11:58.700Z,26
2022-08-18T02:12:58.621Z,28
2022-08-18T02:13:58.622Z,21
2022-08-18T02:14:58.730Z,21
2022-08-18T02:15:58.689Z,21
2022-08-18T02:17:01.790Z,21
2022-08-18T02:17:58.658Z,20
2022-08-18T02:18:58.650Z,20
2022-08-18T02:19:58.549Z,22
2022-08-18T02:20:58.595Z,23
2022-08-18T02:21:58.623Z,21
2022-08-18T02:22:58.606Z,25
2022-08-18T02:23:58.580Z,24
2022-08-18T02:24:58.680Z,23
2022-08-18T02:25:58.728Z,26
2022-08-18T02:26:58.607Z,21
2022-08-18T02:27:58.647Z,25
2022-08-18T02:28:58.635Z,25
2022-08-18T02:29:58.875Z,27
2022-08-18T02:30:58.623Z,29
2022-08-18T02:31:58.629Z,28
2022-08-18T02:32:58.623Z,28
2022-08-18T02:33:58.564Z,30
2022-08-18T02:34:58.576Z,29
2022-08-18T02:35:58.613Z,30
2022-08-18T02:36:58.559Z,31
2022-08-18T02:37:58.595Z,32
2022-08-18T02:38:59.751Z,31
2022-08-18T02:39:58.735Z,33
2022-08-18T02:40:58.603Z,32
2022-08-18T02:41:58.604Z,34
2022-08-18T02:42:58.718Z,36
2022-08-18T02:43:58.708Z,34
2022-08-18T02:44:58.631Z,33
2022-08-18T02:45:58.620Z,35
2022-08-18T02:46:58.656Z,33
2022-08-18T02:47:58.567Z,34
2022-08-18T02:48:58.673Z,30
2022-08-18T02:49:58.581Z,30
2022-08-18T02:50:58.668Z,32
2022-08-18T02:51:58.663Z,31
2022-08-18T02:52:58.673Z,30
2022-08-18T02:53:58.681Z,31
2022-08-18T02:54:58.570Z,29
2022-08-18T02:55:58.581Z,28
2022-08-18T02:56:58.622Z,28
2022-08-18T02:57:58.702Z,28
2022-08-18T02:58:58.598Z,32
2022-08-18T02:59:59.686Z,31
2022-08-18T03:00:58.681Z,30
2022-08-18T03:01:58.717Z,33
2022-08-18T03:02:58.558Z,30
2022-08-18T03:03:58.628Z,32
2022-08-18T03:04:58.681Z,31
2022-08-18T03:05:58.641Z,28
2022-08-18T03:06:58.691Z,27
2022-08-18T03:07:58.671Z,23
2022-08-18T03:08:58.653Z,31
2022-08-18T03:10:01.796Z,34
2022-08-18T03:10:58.564Z,32
2022-08-18T03:11:58.605Z,30
2022-08-18T03:12:58.561Z,32
2022-08-18T03:13:58.604Z,28
2022-08-18T03:14:58.608Z,29
2022-08-18T03:15:58.596Z,30
2022-08-18T03:16:58.558Z,29
2022-08-18T03:17:58.588Z,30
2022-08-18T03:18:58.622Z,31
2022-08-18T03:19:58.623Z,31
2022-08-18T03:20:58.637Z,30
2022-08-18T03:21:58.658Z,30
2022-08-18T03:22:58.664Z,30
2022-08-18T03:24:00.592Z,32
2022-08-18T03:24:58.662Z,30
2022-08-18T03:25:58.551Z,34
2022-08-18T03:26:58.589Z,34
2022-08-18T03:27:58.701Z,35
2022-08-18T03:28:58.624Z,36
2022-08-18T03:29:58.781Z,34
2022-08-18T03:30:58.603Z,37
2022-08-18T03:31:58.640Z,34
2022-08-18T03:32:58.626Z,36
2022-08-18T03:33:59.325Z,36
2022-08-18T03:34:58.692Z,37
2022-08-18T03:35:58.631Z,35
2022-08-18T03:36:58.652Z,39
2022-08-18T03:37:58.667Z,37
2022-08-18T03:38:58.654Z,40
2022-08-18T03:39:58.600Z,32
2022-08-18T03:40:58.553Z,37
2022-08-18T03:42:01.491Z,38
2022-08-18T03:42:58.698Z,37
2022-08-18T03:43:58.570Z,39
2022-08-18T03:44:58.586Z,34
2022-08-18T03:45:58.594Z,32
2022-08-18T03:46:58.557Z,34
2022-08-18T03:47:58.613Z,35
2022-08-18T03:48:58.719Z,34
2022-08-18T03:49:58.607Z,33
2022-08-18T03:51:01.050Z,34
2022-08-18T03:51:58.635Z,34
2022-08-18T03:52:58.658Z,31
2022-08-18T03:53:58.644Z,25
2022-08-18T03:54:58.562Z,23
2022-08-18T03:55:58.618Z,25
2022-08-18T03:56:58.630Z,27
2022-08-18T03:57:58.682Z,24
2022-08-18T03:58:58.566Z,26
2022-08-18T03:59:58.680Z,30
2022-08-18T04:00:58.710Z,27
2022-08-18T04:01:58.640Z,28
2022-08-18T04:02:58.708Z,24
2022-08-18T04:03:58.695Z,31
2022-08-18T04:04:58.628Z,27
2022-08-18T04:05:58.605Z,30
2022-08-18T04:06:58.803Z,33
2022-08-18T04:07:58.602Z,35
2022-08-18T04:08:58.585Z,29
2022-08-18T04:09:58.644Z,30
2022-08-18T04:10:58.659Z,26
2022-08-18T04:11:58.665Z,29
2022-08-18T04:12:58.668Z,30
2022-08-18T04:13:58.669Z,33
2022-08-18T04:14:58.673Z,28
2022-08-18T04:15:58.680Z,30
2022-08-18T04:16:58.695Z,28
2022-08-18T04:18:04.030Z,24
2022-08-18T04:18:58.603Z,29
2022-08-18T04:19:58.566Z,33
2022-08-18T04:20:59.879Z,29
2022-08-18T04:21:58.584Z,30
2022-08-18T04:22:58.633Z,32
2022-08-18T04:23:58.636Z,26
2022-08-18T04:24:58.611Z,34
2022-08-18T04:25:58.560Z,29
2022-08-18T04:26:58.666Z,32
2022-08-18T04:27:58.663Z,31
2022-08-18T04:28:58.672Z,31
2022-08-18T04:29:58.678Z,30
2022-08-18T04:30:58.674Z,29
2022-08-18T04:31:58.678Z,30
2022-08-18T04:32:58.621Z,31
2022-08-18T04:33:58.578Z,30
2022-08-18T04:34:58.589Z,32
2022-08-18T04:35:58.599Z,32
2022-08-18T04:36:58.610Z,32
2022-08-18T04:37:58.627Z,35
2022-08-18T04:38:58.574Z,33
2022-08-18T04:39:58.646Z,38
2022-08-18T04:40:58.638Z,39
2022-08-18T04:41:58.590Z,37
2022-08-18T04:42:58.669Z,35
2022-08-18T04:43:58.561Z,38
2022-08-18T04:44:58.592Z,30
2022-08-18T04:45:58.665Z,30
2022-08-18T04:46:58.673Z,26
2022-08-18T04:47:58.776Z,31
2022-08-18T04:48:58.741Z,33
2022-08-18T04:49:58.710Z,35
2022-08-18T04:50:58.769Z,36
2022-08-18T04:52:36.803Z,39
2022-08-18T04:52:58.906Z,39
2022-08-18T04:53:58.577Z,40
2022-08-18T04:54:58.575Z,41
2022-08-18T04:55:58.606Z,42
2022-08-18T04:56:58.614Z,40
2022-08-18T04:57:58.706Z,44
2022-08-18T04:58:58.609Z,47
2022-08-18T04:59:58.570Z,45
2022-08-18T05:00:58.622Z,45
2022-08-18T05:01:58.581Z,43
2022-08-18T05:02:58.602Z,40
2022-08-18T05:03:58.577Z,42
2022-08-18T05:04:58.618Z,47
2022-08-18T05:05:58.614Z,40
2022-08-18T05:06:58.579Z,49
2022-08-18T05:07:58.597Z,51
2022-08-18T05:08:58.589Z,46
2022-08-18T05:09:58.589Z,50
2022-08-18T05:11:03.646Z,50
2022-08-18T05:11:58.654Z,50
2022-08-18T05:12:58.614Z,48
2022-08-18T05:13:58.641Z,46
2022-08-18T05:14:58.582Z,51
2022-08-18T05:16:10.843Z,49
2022-08-18T05:16:58.586Z,48
2022-08-18T05:17:58.604Z,47
2022-08-18T05:18:58.621Z,50
2022-08-18T05:19:58.631Z,46
2022-08-18T05:20:58.582Z,47
2022-08-18T05:22:00.112Z,45
2022-08-18T05:22:58.587Z,51
2022-08-18T05:23:58.590Z,54
2022-08-18T05:24:58.638Z,52
2022-08-18T05:25:58.793Z,52
2022-08-18T05:26:58.648Z,55
2022-08-18T05:27:58.600Z,54
2022-08-18T05:29:04.391Z,56
2022-08-18T05:29:58.577Z,52
2022-08-18T05:31:00.561Z,53
2022-08-18T05:31:58.590Z,52
2022-08-18T05:32:58.604Z,55
2022-08-18T05:33:58.621Z,51
2022-08-18T05:34:58.586Z,55
2022-08-18T05:35:58.600Z,50
2022-08-18T05:36:58.611Z,52
2022-08-18T05:37:58.602Z,50
2022-08-18T05:38:58.591Z,53
2022-08-18T05:39:58.672Z,49
2022-08-18T05:40:58.603Z,52
2022-08-18T05:41:58.591Z,49
2022-08-18T05:42:58.599Z,50
2022-08-18T05:43:58.624Z,52
2022-08-18T05:44:58.579Z,51
2022-08-18T05:45:58.608Z,50
2022-08-18T05:46:58.627Z,47
2022-08-18T05:47:58.608Z,49
2022-08-18T05:48:58.570Z,53
2022-08-18T05:49:58.639Z,49
2022-08-18T05:50:58.585Z,49
2022-08-18T05:51:58.616Z,48
2022-08-18T05:52:58.602Z,47
2022-08-18T05:53:58.642Z,47
2022-08-18T05:54:58.642Z,53
2022-08-18T05:55:58.590Z,52
2022-08-18T05:56:58.626Z,49
2022-08-18T05:57:58.599Z,47
2022-08-18T05:58:58.587Z,49
2022-08-18T05:59:58.585Z,48
2022-08-18T06:00:59.631Z,46
2022-08-18T06:01:58.640Z,47
2022-08-18T06:02:58.689Z,44
2022-08-18T06:03:58.634Z,47
2022-08-18T06:04:58.607Z,46
2022-08-18T06:05:58.591Z,47
2022-08-18T06:06:58.603Z,47
2022-08-18T06:07:58.653Z,45
2022-08-18T06:08:58.658Z,43
2022-08-18T06:09:58.587Z,45
2022-08-18T06:10:58.614Z,41
2022-08-18T06:11:58.616Z,46
2022-08-18T06:12:58.606Z,44
2022-08-18T06:13:59.812Z,42
2022-08-18T06:14:58.602Z,41
2022-08-18T06:15:58.607Z,44
2022-08-18T06:16:58.645Z,45
2022-08-18T06:17:58.664Z,46
2022-08-18T06:18:58.645Z,44
2022-08-18T06:19:58.666Z,52
2022-08-18T06:20:58.602Z,45
2022-08-18T06:21:58.666Z,45
2022-08-18T06:22:58.688Z,44
2022-08-18T06:23:58.612Z,45
2022-08-18T06:24:58.577Z,49
2022-08-18T06:25:58.582Z,46
2022-08-18T06:26:58.609Z,47
2022-08-18T06:27:58.601Z,51
2022-08-18T06:28:58.707Z,48
2022-08-18T06:29:58.624Z,49
2022-08-18T06:30:58.618Z,51
2022-08-18T06:31:58.627Z,52
2022-08-18T06:32:58.658Z,55
2022-08-18T06:33:58.586Z,57
2022-08-18T06:34:58.652Z,61
2022-08-18T06:35:58.660Z,61
2022-08-18T06:36:58.614Z,56
2022-08-18T06:37:58.614Z,60
2022-08-18T06:38:58.698Z,55
2022-08-18T06:39:58.711Z,61
2022-08-18T06:40:58.688Z,62
2022-08-18T06:41:58.714Z,57
2022-08-18T06:42:59.810Z,63
2022-08-18T06:43:58.736Z,63
2022-08-18T06:44:58.632Z,64
2022-08-18T06:45:58.618Z,64
2022-08-18T06:46:58.608Z,64
2022-08-18T06:47:58.649Z,65
2022-08-18T06:48:58.594Z,61
2022-08-18T06:49:58.594Z,72
2022-08-18T06:50:58.659Z,70
2022-08-18T06:51:58.676Z,79
2022-08-18T06:52:58.672Z,76
2022-08-18T06:53:58.687Z,69
2022-08-18T06:54:58.600Z,63
2022-08-18T06:55:58.680Z,70
2022-08-18T06:56:58.714Z,72
2022-08-18T06:57:58.715Z,73
2022-08-18T06:58:58.704Z,69
2022-08-18T06:59:58.737Z,76
2022-08-18T07:00:58.640Z,71
2022-08-18T07:01:58.599Z,72
2022-08-18T07:02:58.650Z,75
2022-08-18T07:03:58.656Z,66
2022-08-18T07:04:58.618Z,69
2022-08-18T07:05:58.603Z,74
2022-08-18T07:06:58.595Z,77
2022-08-18T07:07:58.680Z,85
2022-08-18T07:08:58.661Z,79
2022-08-18T07:09:58.669Z,69
2022-08-18T07:10:58.675Z,60
2022-08-18T07:11:58.691Z,70
2022-08-18T07:12:58.701Z,76
2022-08-18T07:14:15.591Z,65
2022-08-18T07:14:58.700Z,65
2022-08-18T07:15:58.602Z,76
2022-08-18T07:16:59.870Z,79
2022-08-18T07:17:59.071Z,81
2022-08-18T07:18:58.633Z,81
2022-08-18T07:19:58.641Z,91
2022-08-18T07:20:58.644Z,90
2022-08-18T07:21:58.661Z,93
2022-08-18T07:23:00.020Z,90
2022-08-18T07:24:23.163Z,92
2022-08-18T07:25:01.741Z,98
2022-08-18T07:25:58.608Z,98
2022-08-18T07:26:58.759Z,114
2022-08-18T07:27:58.605Z,108
2022-08-18T07:28:58.594Z,115
2022-08-18T07:29:58.685Z,123
2022-08-18T07:31:16.011Z,120
2022-08-18T07:31:58.706Z,133
2022-08-18T07:32:58.736Z,130
2022-08-18T07:33:58.622Z,125
2022-08-18T07:34:58.622Z,127
2022-08-18T07:35:58.629Z,126
2022-08-18T07:36:58.635Z,127
2022-08-18T07:37:58.657Z,127
2022-08-18T07:38:58.755Z,127
2022-08-18T07:39:58.688Z,136
2022-08-18T07:40:58.606Z,129
2022-08-18T07:41:58.683Z,139
2022-08-18T07:43:01.140Z,137
2022-08-18T07:43:58.685Z,138
2022-08-18T07:44:58.683Z,145
2022-08-18T07:45:58.693Z,143
2022-08-18T07:46:58.693Z,139
2022-08-18T07:48:07.205Z,137
2022-08-18T07:48:58.713Z,140
2022-08-18T07:50:18.270Z,124
2022-08-18T07:51:00.866Z,137
2022-08-18T07:51:58.600Z,131
2022-08-18T07:52:58.647Z,129
2022-08-18T07:53:58.652Z,141
2022-08-18T07:54:58.598Z,137
2022-08-18T07:55:58.609Z,138
2022-08-18T07:56:58.684Z,133
2022-08-18T07:57:58.741Z,119
2022-08-18T07:58:58.669Z,129
2022-08-18T07:59:58.685Z,130
2022-08-18T08:00:59.873Z,115
2022-08-18T08:01:58.790Z,123
2022-08-18T08:02:58.729Z,122
2022-08-18T08:03:58.724Z,119
2022-08-18T08:04:58.632Z,120
2022-08-18T08:05:58.609Z,120
2022-08-18T08:07:22.887Z,116
2022-08-18T08:07:58.746Z,103
2022-08-18T08:08:58.630Z,110
2022-08-18T08:09:58.606Z,101
2022-08-18T08:10:58.658Z,82
2022-08-18T08:11:58.671Z,77
2022-08-18T08:13:08.839Z,94
2022-08-18T08:13:58.678Z,83
2022-08-18T08:14:58.675Z,86
2022-08-18T08:15:58.687Z,93
2022-08-18T08:16:58.683Z,95
2022-08-18T08:17:58.619Z,104
2022-08-18T08:18:58.701Z,102
2022-08-18T08:20:01.321Z,105
2022-08-18T08:20:58.710Z,106
2022-08-18T08:21:58.652Z,98
2022-08-18T08:22:58.648Z,96
2022-08-18T08:23:59.123Z,104
2022-08-18T08:24:58.685Z,80
2022-08-18T08:25:58.717Z,105
2022-08-18T08:26:58.699Z,105
2022-08-18T08:27:58.805Z,100
2022-08-18T08:28:58.667Z,104
2022-08-18T08:29:58.662Z,115
2022-08-18T08:31:09.258Z,115
2022-08-18T08:31:58.691Z,102
2022-08-18T08:32:58.699Z,99
2022-08-18T08:34:01.733Z,98
2022-08-18T08:34:58.699Z,105
2022-08-18T08:35:58.717Z,103
2022-08-18T08:36:58.606Z,99
2022-08-18T08:38:02.305Z,103
2022-08-18T08:38:58.633Z,98
2022-08-18T08:39:58.686Z,99
2022-08-18T08:40:58.644Z,91
2022-08-18T08:42:30.463Z,96
2022-08-18T08:42:58.658Z,95
2022-08-18T08:43:58.663Z,82
2022-08-18T08:44:59.640Z,96
2022-08-18T08:45:58.694Z,93
2022-08-18T08:46:58.728Z,87
2022-08-18T08:48:08.161Z,88
2022-08-18T08:48:58.671Z,92
2022-08-18T08:50:00.736Z,84
2022-08-18T08:50:58.703Z,88
2022-08-18T08:51:58.702Z,87
2022-08-18T08:52:58.774Z,89
2022-08-18T08:53:58.608Z,92
2022-08-18T08:54:58.642Z,90
2022-08-18T08:56:02.180Z,89
2022-08-18T08:56:58.649Z,80
2022-08-18T08:57:58.641Z,78
2022-08-18T08:58:58.651Z,84
2022-08-18T08:59:58.649Z,76
2022-08-18T09:00:58.659Z,85
2022-08-18T09:01:58.726Z,89
2022-08-18T09:02:58.814Z,85
2022-08-18T09:03:58.683Z,83
2022-08-18T09:05:08.341Z,89
2022-08-18T09:05:58.785Z,81
2022-08-18T09:06:58.702Z,89
2022-08-18T09:07:58.809Z,81
2022-08-18T09:08:58.609Z,82
2022-08-18T09:09:58.656Z,86
2022-08-18T09:10:58.652Z,84
2022-08-18T09:11:58.648Z,87
2022-08-18T09:12:58.657Z,72
2022-08-18T09:13:58.622Z,72
2022-08-18T09:14:58.608Z,84
2022-08-18T09:15:58.658Z,82
2022-08-18T09:16:58.788Z,82
2022-08-18T09:17:58.700Z,84
2022-08-18T09:18:58.679Z,82
2022-08-18T09:19:58.789Z,83
2022-08-18T09:20:58.688Z,86
2022-08-18T09:21:58.700Z,85
2022-08-18T09:22:58.629Z,84
2022-08-18T09:23:58.674Z,90
2022-08-18T09:24:58.635Z,84
2022-08-18T09:25:58.715Z,77
2022-08-18T09:26:58.640Z,72
2022-08-18T09:28:13.708Z,82
2022-08-18T09:28:58.668Z,81
2022-08-18T09:29:58.651Z,88
2022-08-18T09:30:58.755Z,86
2022-08-18T09:31:58.662Z,94
2022-08-18T09:32:58.634Z,92
2022-08-18T09:33:59.967Z,88
2022-08-18T09:34:58.618Z,85
2022-08-18T09:35:58.611Z,73
2022-08-18T09:36:58.712Z,76
2022-08-18T09:37:58.709Z,67
2022-08-18T09:38:58.666Z,78
2022-08-18T09:39:58.811Z,79
2022-08-18T09:41:02.486Z,75
2022-08-18T09:41:58.745Z,84
2022-08-18T09:42:58.682Z,81
2022-08-18T09:43:58.690Z,79
2022-08-18T09:44:58.725Z,81
2022-08-18T09:45:58.753Z,82
2022-08-18T09:46:59.019Z,77
2022-08-18T09:47:59.010Z,79
2022-08-18T09:48:58.626Z,75
2022-08-18T09:49:58.666Z,80
2022-08-18T09:50:58.686Z,82
2022-08-18T09:51:58.696Z,85
2022-08-18T09:52:58.938Z,90
2022-08-18T09:53:58.699Z,90
2022-08-18T09:54:58.637Z,89
2022-08-18T09:56:01.662Z,90
2022-08-18T09:56:58.648Z,95
2022-08-18T09:57:58.737Z,89
2022-08-18T09:58:58.640Z,89
2022-08-18T09:59:58.741Z,85
2022-08-18T10:00:58.643Z,88
2022-08-18T10:01:58.658Z,93
2022-08-18T10:02:58.628Z,89
2022-08-18T10:03:58.658Z,88
2022-08-18T10:04:58.689Z,89
2022-08-18T10:05:59.575Z,90
2022-08-18T10:06:58.649Z,91
2022-08-18T10:07:58.649Z,93
2022-08-18T10:08:58.691Z,86
2022-08-18T10:09:58.695Z,94
2022-08-18T10:11:01.646Z,98
2022-08-18T10:11:58.730Z,99
2022-08-18T10:12:58.729Z,96
2022-08-18T10:13:58.719Z,93
2022-08-18T10:14:58.736Z,97
2022-08-18T10:15:58.639Z,89
2022-08-18T10:17:21.353Z,94
2022-08-18T10:17:58.641Z,98
2022-08-18T10:18:58.645Z,96
2022-08-18T10:19:58.842Z,93
2022-08-18T10:20:58.860Z,94
2022-08-18T10:21:58.677Z,93
2022-08-18T10:22:58.709Z,96
2022-08-18T10:24:29.443Z,92
2022-08-18T10:24:58.634Z,93
2022-08-18T10:26:58.695Z,95
2022-08-18T10:27:58.728Z,94
2022-08-18T10:28:58.623Z,86
2022-08-18T10:29:58.658Z,91
2022-08-18T10:31:06.595Z,87
2022-08-18T10:31:58.796Z,91
2022-08-18T10:32:58.908Z,88
2022-08-18T10:33:58.677Z,82
2022-08-18T10:34:58.666Z,81
2022-08-18T10:35:58.638Z,68
2022-08-18T10:36:59.116Z,69
2022-08-18T10:37:58.640Z,78
2022-08-18T10:38:58.630Z,75
2022-08-18T10:39:58.699Z,74
2022-08-18T10:40:58.686Z,72
2022-08-18T10:41:58.812Z,79
2022-08-18T10:42:58.646Z,76
2022-08-18T10:43:58.737Z,80
2022-08-18T10:44:58.653Z,73
2022-08-18T10:46:24.351Z,76
2022-08-18T10:46:58.730Z,72
2022-08-18T10:47:58.706Z,71
2022-08-18T10:48:58.668Z,75
2022-08-18T10:49:58.665Z,74
2022-08-18T10:50:58.634Z,76
2022-08-18T10:52:00.594Z,71
2022-08-18T10:53:58.655Z,60
2022-08-18T10:54:58.717Z,65
2022-08-18T10:55:58.689Z,68
2022-08-18T10:56:58.665Z,65
2022-08-18T10:57:58.645Z,61
2022-08-18T10:58:58.737Z,60
2022-08-18T10:59:58.730Z,57
2022-08-18T11:00:58.716Z,59
2022-08-18T11:01:58.687Z,59
2022-08-18T11:03:08.129Z,56
2022-08-18T11:03:58.880Z,55
2022-08-18T11:04:59.929Z,57
2022-08-18T11:05:58.646Z,57
2022-08-18T11:06:58.651Z,54
2022-08-18T11:07:58.769Z,58
2022-08-18T11:08:58.657Z,57
2022-08-18T11:10:13.215Z,54
2022-08-18T11:11:32.908Z,58
2022-08-18T11:12:00.967Z,58
2022-08-18T11:12:58.972Z,49
2022-08-18T11:13:58.695Z,53
2022-08-18T11:14:58.810Z,48
2022-08-18T11:15:58.730Z,51
2022-08-18T11:16:58.723Z,57
2022-08-18T11:17:58.731Z,54
2022-08-18T11:18:58.724Z,50
2022-08-18T11:19:58.740Z,49
2022-08-18T11:20:58.644Z,50
2022-08-18T11:21:58.634Z,53
2022-08-18T11:22:58.704Z,44
2022-08-18T11:23:58.661Z,44
2022-08-18T11:24:58.670Z,47
2022-08-18T11:25:58.672Z,45
2022-08-18T11:26:58.976Z,51
2022-08-18T11:27:58.766Z,51
2022-08-18T11:28:58.688Z,49
2022-08-18T11:29:58.791Z,55
2022-08-18T11:30:58.713Z,53
2022-08-18T11:31:59.420Z,51
2022-08-18T11:32:59.077Z,47
2022-08-18T11:33:58.649Z,45
2022-08-18T11:34:58.720Z,45
2022-08-18T11:35:58.783Z,42
2022-08-18T11:36:58.754Z,42
2022-08-18T11:37:59.887Z,42
2022-08-18T11:38:58.654Z,46
2022-08-18T11:39:58.751Z,46
2022-08-18T11:41:09.456Z,48
2022-08-18T11:41:58.745Z,48
2022-08-18T11:42:58.656Z,44
2022-08-18T11:43:58.787Z,40
2022-08-18T11:44:58.693Z,39
2022-08-18T11:45:58.713Z,41
2022-08-18T11:46:58.649Z,46
2022-08-18T11:47:58.662Z,48
2022-08-18T11:48:58.651Z,49
2022-08-18T11:49:58.730Z,47
2022-08-18T11:50:58.739Z,51
2022-08-18T11:52:02.256Z,44
2022-08-18T11:52:58.666Z,48
2022-08-18T11:54:58.643Z,48
2022-08-18T11:55:58.660Z,47
2022-08-18T11:56:58.690Z,48
2022-08-18T11:58:00.102Z,49
2022-08-18T11:58:58.786Z,45
2022-08-18T12:00:00.912Z,40
2022-08-18T12:01:58.697Z,38
2022-08-18T12:02:58.670Z,38
2022-08-18T12:03:58.816Z,39
2022-08-18T12:04:58.723Z,39
2022-08-18T12:05:58.718Z,42
2022-08-18T12:06:58.751Z,35
2022-08-18T12:08:01.613Z,41
2022-08-18T12:08:59.371Z,46
2022-08-18T12:10:18.461Z,43
2022-08-18T12:10:58.649Z,44
2022-08-18T12:11:58.873Z,36
2022-08-18T12:12:59.049Z,40
2022-08-18T12:13:58.646Z,41
2022-08-18T12:15:58.651Z,43
2022-08-18T12:16:59.663Z,40
2022-08-18T12:17:58.755Z,41
2022-08-18T12:18:58.699Z,35
2022-08-18T12:19:58.705Z,40
2022-08-18T12:20:59.179Z,43
2022-08-18T12:21:58.721Z,40
2022-08-18T12:22:58.736Z,42
2022-08-18T12:23:58.667Z,40
2022-08-18T12:24:58.664Z,40
2022-08-18T12:25:58.702Z,43
2022-08-18T12:26:58.699Z,40
2022-08-18T12:27:58.772Z,38
2022-08-18T12:29:58.671Z,37
2022-08-18T12:30:58.691Z,38
2022-08-18T12:31:58.686Z,41
2022-08-18T12:33:10.329Z,39
2022-08-18T12:34:00.972Z,30
2022-08-18T12:35:03.504Z,40
2022-08-18T12:35:59.123Z,38
2022-08-18T12:36:58.738Z,37
2022-08-18T12:38:03.507Z,34
2022-08-18T12:38:58.663Z,38
2022-08-18T12:39:58.716Z,38
2022-08-18T12:40:58.767Z,39
2022-08-18T12:41:59.406Z,41
2022-08-18T12:42:58.767Z,43
2022-08-18T12:43:59.886Z,43
2022-08-18T12:44:58.778Z,40
2022-08-18T12:45:58.683Z,37
2022-08-18T12:46:59.685Z,38
2022-08-18T12:47:58.699Z,37
2022-08-18T12:48:58.698Z,36
2022-08-18T12:49:58.701Z,38
2022-08-18T12:51:58.669Z,40
2022-08-18T12:52:58.676Z,33
2022-08-18T12:54:58.738Z,34
2022-08-18T12:55:58.745Z,33
2022-08-18T12:56:58.783Z,33
2022-08-18T12:57:58.765Z,31
2022-08-18T12:58:58.761Z,34
2022-08-18T12:59:58.775Z,33
2022-08-18T13:00:58.812Z,31
2022-08-18T13:02:00.222Z,37
2022-08-18T13:02:58.697Z,36
2022-08-18T13:04:10.979Z,32
2022-08-18T13:04:58.700Z,31
2022-08-18T13:05:58.698Z,33
2022-08-18T13:07:00.515Z,31
2022-08-18T13:07:58.830Z,31
2022-08-18T13:08:58.711Z,29
2022-08-18T13:09:58.723Z,31
2022-08-18T13:10:58.803Z,32
2022-08-18T13:12:00.171Z,31
2022-08-18T13:12:58.778Z,32
2022-08-18T13:13:58.753Z,30
2022-08-18T13:14:58.750Z,29
2022-08-18T13:16:03.323Z,31
2022-08-18T13:16:58.986Z,28
2022-08-18T13:17:58.941Z,29
2022-08-18T13:18:58.837Z,29
2022-08-18T13:19:58.895Z,28
2022-08-18T13:20:59.008Z,28
2022-08-18T13:22:03.976Z,30
2022-08-18T13:22:59.052Z,30
2022-08-18T13:23:59.009Z,33
2022-08-18T13:24:58.673Z,32
2022-08-18T13:25:59.373Z,29
2022-08-18T13:26:58.756Z,30
2022-08-18T13:27:59.201Z,34
2022-08-18T13:28:58.755Z,31
2022-08-18T13:29:58.699Z,33
2022-08-18T13:30:58.685Z,32
2022-08-18T13:31:58.775Z,30
2022-08-18T13:33:02.494Z,30
2022-08-18T13:33:59.596Z,28
2022-08-18T13:34:58.701Z,31
2022-08-18T13:35:58.805Z,29
2022-08-18T13:36:58.832Z,26
2022-08-18T13:37:58.721Z,29
2022-08-18T13:38:58.712Z,29
2022-08-18T13:39:58.826Z,30
2022-08-18T13:40:59.021Z,31
2022-08-18T13:42:00.526Z,31
2022-08-18T13:42:58.781Z,30
2022-08-18T13:43:58.691Z,28
2022-08-18T13:44:58.763Z,29
2022-08-18T13:45:58.760Z,26
2022-08-18T13:46:58.761Z,25
2022-08-18T13:47:58.801Z,26
2022-08-18T13:48:58.776Z,24
2022-08-18T13:49:59.410Z,25
2022-08-18T13:50:58.806Z,27
2022-08-18T13:51:58.693Z,22
2022-08-18T13:52:59.057Z,24
2022-08-18T13:54:18.667Z,24
2022-08-18T13:54:58.707Z,25
2022-08-18T13:55:58.917Z,24
2022-08-18T13:56:58.734Z,22
2022-08-18T13:57:58.757Z,24
2022-08-18T13:58:58.735Z,23
2022-08-18T13:59:58.740Z,27
2022-08-18T14:01:16.073Z,22
2022-08-18T14:01:58.792Z,23
2022-08-18T14:02:58.853Z,21
2022-08-18T14:03:58.767Z,20
2022-08-18T14:04:58.780Z,23
2022-08-18T14:06:01.561Z,20
2022-08-18T14:07:00.458Z,21
2022-08-18T14:07:58.699Z,23
2022-08-18T14:08:58.689Z,21
2022-08-18T14:09:58.712Z,22
2022-08-18T14:10:58.717Z,19
2022-08-18T14:11:58.730Z,20
2022-08-18T14:12:58.753Z,21
2022-08-18T14:13:58.730Z,23
2022-08-18T14:14:58.742Z,22
2022-08-18T14:15:58.702Z,25
2022-08-18T14:16:58.771Z,22
2022-08-18T14:17:58.928Z,23
2022-08-18T14:18:58.704Z,22
2022-08-18T14:19:58.774Z,22
2022-08-18T14:20:58.683Z,23
2022-08-18T14:21:58.741Z,21